createdAt,value
2023-05-14T00:01:00.530Z,6.43
2023-05-14T00:03:28.445Z,6.40
2023-05-14T00:05:56.350Z,5.90
2023-05-14T00:08:25.829Z,6.37
2023-05-14T00:10:53.846Z,6.60
2023-05-14T00:13:21.726Z,6.80
2023-05-14T00:15:49.600Z,6.50
2023-05-14T00:18:17.557Z,6.27
2023-05-14T00:20:45.416Z,6.53
2023-05-14T00:23:13.319Z,6.20
2023-05-14T00:25:42.562Z,6.90
2023-05-14T00:28:10.482Z,6.60
2023-05-14T00:30:39.760Z,6.50
2023-05-14T00:33:08.207Z,6.47
2023-05-14T00:35:36.370Z,6.70
2023-05-14T00:38:04.924Z,6.80
2023-05-14T00:40:32.923Z,6.67
2023-05-14T00:43:02.574Z,7.17
2023-05-14T00:45:30.496Z,6.77
2023-05-14T00:47:58.570Z,6.73
2023-05-14T00:50:26.882Z,7.27
2023-05-14T00:52:55.007Z,7.37
2023-05-14T00:55:23.636Z,6.80
2023-05-14T00:57:52.254Z,7.47
2023-05-14T01:00:22.175Z,7.10
2023-05-14T01:02:50.221Z,7.07
2023-05-14T01:05:18.488Z,7.00
2023-05-14T01:07:56.285Z,7.73
2023-05-14T01:10:30.548Z,7.20
2023-05-14T01:13:18.445Z,7.17
2023-05-14T01:15:49.034Z,6.73
2023-05-14T01:18:20.200Z,7.20
2023-05-14T01:20:52.201Z,7.07
2023-05-14T01:23:21.581Z,7.43
2023-05-14T01:25:49.454Z,7.97
2023-05-14T01:28:19.906Z,7.40
2023-05-14T01:30:52.990Z,7.50
2023-05-14T01:33:22.923Z,7.60
2023-05-14T01:35:53.682Z,7.70
2023-05-14T01:38:24.219Z,7.30
2023-05-14T01:40:52.419Z,6.90
2023-05-14T01:43:20.527Z,7.27
2023-05-14T01:45:48.537Z,7.50
2023-05-14T01:48:16.573Z,7.87
2023-05-14T01:50:44.433Z,6.93
2023-05-14T01:53:12.318Z,7.13
2023-05-14T01:55:41.575Z,7.13
2023-05-14T01:58:09.444Z,7.30
2023-05-14T02:00:38.334Z,7.63
2023-05-14T02:03:06.235Z,7.27
2023-05-14T02:05:34.138Z,8.23
2023-05-14T02:08:02.016Z,7.80
2023-05-14T02:10:29.883Z,8.00
2023-05-14T02:12:59.360Z,7.90
2023-05-14T02:15:27.175Z,7.60
2023-05-14T02:17:55.030Z,6.63
2023-05-14T02:20:23.141Z,8.00
2023-05-14T02:22:51.467Z,8.00
2023-05-14T02:25:19.340Z,7.63
2023-05-14T02:27:47.869Z,8.00
2023-05-14T02:30:17.439Z,7.80
2023-05-14T02:32:45.970Z,8.27
2023-05-14T02:35:13.994Z,7.90
2023-05-14T02:37:41.822Z,7.83
2023-05-14T02:40:10.712Z,7.87
2023-05-14T02:42:38.562Z,7.90
2023-05-14T02:45:07.742Z,7.47
2023-05-14T02:47:38.238Z,8.07
2023-05-14T02:50:07.516Z,8.63
2023-05-14T02:52:35.434Z,8.00
2023-05-14T02:55:03.652Z,7.80
2023-05-14T02:57:31.508Z,7.90
2023-05-14T02:59:59.513Z,7.80
2023-05-14T03:02:28.086Z,7.90
2023-05-14T03:04:57.648Z,7.83
2023-05-14T03:07:25.482Z,8.60
2023-05-14T03:09:53.338Z,7.73
2023-05-14T03:12:21.282Z,8.33
2023-05-14T03:14:49.237Z,8.50
2023-05-14T03:17:17.103Z,8.83
2023-05-14T03:19:44.956Z,8.90
2023-05-14T03:22:14.270Z,8.60
2023-05-14T03:24:42.156Z,8.67
2023-05-14T03:27:10.057Z,8.47
2023-05-14T03:29:37.930Z,8.17
2023-05-14T03:32:06.806Z,7.93
2023-05-14T03:34:34.706Z,8.17
2023-05-14T03:37:02.804Z,8.10
2023-05-14T03:39:32.043Z,8.07
2023-05-14T03:41:59.878Z,7.73
2023-05-14T03:44:27.765Z,8.33
2023-05-14T03:46:55.864Z,7.83
2023-05-14T03:49:23.697Z,8.80
2023-05-14T03:51:51.564Z,8.37
2023-05-14T03:54:19.451Z,8.70
2023-05-14T03:56:48.643Z,8.93
2023-05-14T03:59:16.551Z,8.03
2023-05-14T04:01:44.560Z,8.10
2023-05-14T04:04:12.577Z,8.13
2023-05-14T04:06:40.499Z,8.83
2023-05-14T04:09:08.492Z,8.70
2023-05-14T04:11:36.335Z,8.30
2023-05-14T04:14:05.610Z,9.27
2023-05-14T04:16:33.532Z,8.60
2023-05-14T04:19:04.545Z,8.90
2023-05-14T04:21:32.472Z,8.70
2023-05-14T04:24:00.542Z,8.50
2023-05-14T04:26:28.512Z,8.70
2023-05-14T04:28:56.359Z,8.50
2023-05-14T04:31:25.607Z,8.07
2023-05-14T04:33:53.518Z,8.40
2023-05-14T04:36:21.389Z,8.57
2023-05-14T04:38:49.272Z,8.20
2023-05-14T04:41:17.118Z,7.83
2023-05-14T04:43:45.012Z,8.33
2023-05-14T04:46:13.905Z,8.27
2023-05-14T04:48:43.277Z,8.20
2023-05-14T04:51:11.163Z,8.27
2023-05-14T04:53:39.035Z,8.10
2023-05-14T04:56:07.475Z,8.20
2023-05-14T04:58:35.443Z,7.77
2023-05-14T05:01:05.045Z,7.30
2023-05-14T05:03:33.211Z,7.53
2023-05-14T05:06:02.744Z,7.60
2023-05-14T05:08:30.615Z,7.83
2023-05-14T05:10:58.452Z,7.17
2023-05-14T05:13:26.353Z,8.53
2023-05-14T05:15:54.284Z,7.63
2023-05-14T05:18:22.192Z,7.13
2023-05-14T05:20:50.038Z,7.20
2023-05-14T05:23:19.334Z,7.10
2023-05-14T05:25:47.181Z,7.03
2023-05-14T05:28:15.009Z,7.03
2023-05-14T05:30:45.167Z,6.97
2023-05-14T05:33:13.499Z,6.33
2023-05-14T05:35:41.907Z,6.20
2023-05-14T05:38:09.810Z,6.20
2023-05-14T05:40:39.192Z,6.30
2023-05-14T05:43:07.029Z,6.80
2023-05-14T05:45:34.932Z,6.43
2023-05-14T05:48:02.843Z,7.00
2023-05-14T05:50:32.291Z,6.60
2023-05-14T05:53:00.558Z,7.50
2023-05-14T05:55:28.394Z,9.03
2023-05-14T05:57:57.623Z,6.83
2023-05-14T06:00:25.899Z,6.60
2023-05-14T06:02:54.087Z,6.53
2023-05-14T06:05:22.014Z,6.33
2023-05-14T06:07:49.900Z,6.43
2023-05-14T06:10:17.953Z,6.73
2023-05-14T06:12:45.822Z,6.07
2023-05-14T06:15:15.521Z,6.20
2023-05-14T06:17:43.417Z,6.37
2023-05-14T06:20:12.110Z,5.90
2023-05-14T06:22:40.010Z,5.40
2023-05-14T06:25:08.961Z,5.10
2023-05-14T06:27:36.854Z,5.37
2023-05-14T06:30:05.208Z,5.33
2023-05-14T06:32:34.449Z,5.60
2023-05-14T06:35:02.432Z,4.80
2023-05-14T06:37:30.248Z,4.70
2023-05-14T06:39:58.204Z,5.13
2023-05-14T06:42:26.496Z,4.72
2023-05-14T06:44:54.641Z,4.68
2023-05-14T06:47:22.553Z,4.40
2023-05-14T06:49:51.845Z,4.78
2023-05-14T06:52:19.705Z,4.45
2023-05-14T06:54:47.534Z,4.57
2023-05-14T06:57:15.411Z,4.20
2023-05-14T06:59:43.472Z,4.30
2023-05-14T07:02:11.668Z,4.28
2023-05-14T07:04:39.615Z,4.05
2023-05-14T07:07:10.556Z,4.40
2023-05-14T07:09:38.418Z,4.13
2023-05-14T07:12:07.375Z,4.20
2023-05-14T07:14:35.466Z,4.28
2023-05-14T07:17:03.521Z,4.45
2023-05-14T07:19:31.438Z,4.13
2023-05-14T07:21:59.452Z,4.00
2023-05-14T07:24:28.675Z,4.63
2023-05-14T07:26:57.311Z,4.55
2023-05-14T07:29:25.832Z,4.00
2023-05-14T07:31:53.747Z,4.53
2023-05-14T07:34:21.618Z,4.77
2023-05-14T07:36:49.521Z,4.27
2023-05-14T07:39:17.417Z,4.50
2023-05-14T07:41:46.654Z,4.70
2023-05-14T07:44:14.628Z,4.60
2023-05-14T07:46:43.130Z,4.73
2023-05-14T07:49:11.025Z,4.33
2023-05-14T07:51:38.887Z,4.60
2023-05-14T07:54:06.929Z,4.23
2023-05-14T07:56:34.787Z,4.37
2023-05-14T07:59:04.040Z,4.03
2023-05-14T08:01:32.377Z,4.80
2023-05-14T08:04:00.537Z,4.10
2023-05-14T08:06:29.576Z,3.70
2023-05-14T08:08:57.409Z,3.50
2023-05-14T08:11:26.121Z,3.37
2023-05-14T08:13:54.041Z,3.70
2023-05-14T08:16:23.543Z,3.60
2023-05-14T08:18:51.463Z,3.63
2023-05-14T08:21:19.397Z,3.90
2023-05-14T08:23:47.283Z,3.60
2023-05-14T08:26:15.139Z,3.83
2023-05-14T08:28:42.994Z,3.70
2023-05-14T08:31:10.949Z,3.37
2023-05-14T08:33:40.219Z,3.60
2023-05-14T08:36:08.816Z,2.70
2023-05-14T08:38:36.685Z,2.70
2023-05-14T08:41:07.195Z,2.23
2023-05-14T08:43:45.386Z,2.40
2023-05-14T08:46:15.359Z,2.67
2023-05-14T08:48:49.261Z,3.00
2023-05-14T08:51:17.242Z,3.10
2023-05-14T08:53:45.605Z,2.72
2023-05-14T08:56:15.018Z,2.78
2023-05-14T08:58:44.041Z,2.80
2023-05-14T09:01:11.898Z,3.00
2023-05-14T09:03:40.912Z,2.95
2023-05-14T09:06:10.494Z,2.80
2023-05-14T09:08:38.867Z,2.95
2023-05-14T09:11:06.855Z,3.40
2023-05-14T09:13:37.647Z,3.25
2023-05-14T09:16:05.969Z,3.60
2023-05-14T09:18:33.963Z,3.30
2023-05-14T09:21:02.739Z,3.57
2023-05-14T09:23:34.692Z,3.33
2023-05-14T09:26:05.897Z,3.30
2023-05-14T09:28:33.752Z,3.23
2023-05-14T09:31:01.676Z,4.00
2023-05-14T09:33:29.993Z,4.00
2023-05-14T09:36:00.685Z,3.53
2023-05-14T09:38:33.390Z,3.30
2023-05-14T09:41:01.941Z,3.60
2023-05-14T09:43:29.777Z,3.30
2023-05-14T09:45:57.659Z,3.77
2023-05-14T09:48:26.478Z,3.50
2023-05-14T09:50:54.370Z,3.83
2023-05-14T09:53:22.594Z,3.43
2023-05-14T09:55:51.811Z,3.30
2023-05-14T09:58:19.696Z,3.30
2023-05-14T10:00:48.399Z,3.97
2023-05-14T10:03:19.709Z,3.87
2023-05-14T10:05:51.120Z,4.00
2023-05-14T10:08:23.303Z,5.00
2023-05-14T10:10:54.218Z,3.77
2023-05-14T10:13:25.105Z,3.60
2023-05-14T10:15:58.866Z,3.50
2023-05-14T10:18:32.138Z,3.73
2023-05-14T10:21:06.678Z,3.87
2023-05-14T10:23:37.798Z,3.43
2023-05-14T10:26:07.929Z,3.60
2023-05-14T10:28:36.489Z,3.10
2023-05-14T10:31:04.402Z,3.63
2023-05-14T10:33:47.117Z,4.30
2023-05-14T10:36:15.120Z,3.63
2023-05-14T10:38:42.950Z,3.73
2023-05-14T10:41:15.089Z,3.07
2023-05-14T10:43:43.648Z,3.20
2023-05-14T10:46:15.197Z,3.00
2023-05-14T10:48:44.504Z,3.40
2023-05-14T10:51:13.980Z,2.90
2023-05-14T10:53:44.201Z,3.20
2023-05-14T10:56:15.528Z,2.88
2023-05-14T10:58:44.774Z,3.22
2023-05-14T11:01:14.333Z,3.30
2023-05-14T11:03:43.452Z,2.97
2023-05-14T11:06:13.173Z,2.88
2023-05-14T11:08:41.678Z,2.75
2023-05-14T11:11:11.030Z,3.08
2023-05-14T11:13:40.479Z,2.55
2023-05-14T11:16:21.569Z,2.65
2023-05-14T11:19:01.775Z,2.83
2023-05-14T11:21:29.794Z,2.50
2023-05-14T11:23:57.951Z,2.28
2023-05-14T11:26:25.956Z,2.40
2023-05-14T11:28:55.323Z,2.60
2023-05-14T11:31:24.263Z,2.60
2023-05-14T11:33:53.490Z,3.03
2023-05-14T11:36:21.662Z,3.03
2023-05-14T11:38:51.551Z,3.20
2023-05-14T11:41:21.540Z,3.10
2023-05-14T11:43:50.088Z,2.88
2023-05-14T11:46:19.941Z,2.83
2023-05-14T11:48:48.272Z,3.10
2023-05-14T11:51:16.209Z,3.08
2023-05-14T11:53:44.163Z,3.20
2023-05-14T11:56:12.042Z,3.50
2023-05-14T11:58:40.032Z,3.78
2023-05-14T12:01:07.985Z,3.47
2023-05-14T12:03:37.610Z,3.43
2023-05-14T12:06:08.364Z,3.40
2023-05-14T12:08:36.350Z,3.50
2023-05-14T12:11:04.563Z,3.60
2023-05-14T12:13:33.453Z,4.00
2023-05-14T12:16:02.464Z,3.60
2023-05-14T12:18:31.658Z,3.03
2023-05-14T12:21:08.956Z,3.40
2023-05-14T12:23:39.472Z,3.57
2023-05-14T12:26:09.170Z,3.43
2023-05-14T12:28:43.162Z,3.70
2023-05-14T12:31:16.636Z,4.20
2023-05-14T12:33:44.492Z,3.60
2023-05-14T12:38:48.190Z,3.93
2023-05-14T12:41:16.021Z,3.63
2023-05-14T12:43:44.986Z,3.40
2023-05-14T12:46:12.900Z,3.50
2023-05-14T12:48:40.759Z,3.63
2023-05-14T12:51:14.300Z,3.67
2023-05-14T12:53:42.269Z,4.00
2023-05-14T12:56:10.208Z,3.80
2023-05-14T12:58:38.214Z,4.00
2023-05-14T13:01:06.656Z,4.53
2023-05-14T13:03:34.703Z,4.23
2023-05-14T13:06:02.638Z,3.90
2023-05-14T13:08:31.873Z,4.07
2023-05-14T13:10:59.710Z,4.07
2023-05-14T13:13:27.620Z,4.10
2023-05-14T13:15:55.631Z,4.07
2023-05-14T13:18:23.544Z,4.40
2023-05-14T13:20:51.869Z,4.00
2023-05-14T13:23:19.735Z,4.03
2023-05-14T13:25:50.047Z,4.23
2023-05-14T13:28:18.002Z,4.37
2023-05-14T13:31:05.024Z,4.57
2023-05-14T13:33:33.507Z,4.50
2023-05-14T13:36:01.469Z,4.80
2023-05-14T13:38:29.386Z,4.70
2023-05-14T13:41:02.522Z,4.63
2023-05-14T13:43:31.330Z,4.57
2023-05-14T13:45:59.642Z,4.37
2023-05-14T13:48:27.757Z,4.53
2023-05-14T13:50:56.068Z,4.50
2023-05-14T13:53:25.634Z,4.30
2023-05-14T13:55:56.639Z,4.03
2023-05-14T13:58:26.481Z,3.70
2023-05-14T14:00:54.684Z,4.70
2023-05-14T14:03:22.556Z,4.43
2023-05-14T14:05:51.660Z,4.20
2023-05-14T14:08:24.114Z,4.60
2023-05-14T14:10:54.652Z,3.87
2023-05-14T14:13:23.412Z,4.23
2023-05-14T14:15:52.980Z,4.43
2023-05-14T14:18:20.923Z,3.93
2023-05-14T14:20:48.965Z,4.83
2023-05-14T14:23:16.798Z,4.60
2023-05-14T14:25:44.771Z,4.40
2023-05-14T14:28:12.621Z,4.77
2023-05-14T14:30:40.462Z,4.97
2023-05-14T14:33:09.737Z,4.80
2023-05-14T14:35:37.775Z,3.93
2023-05-14T14:38:05.756Z,4.20
2023-05-14T14:40:34.375Z,4.40
2023-05-14T14:43:03.095Z,4.53
2023-05-14T14:45:31.092Z,4.77
2023-05-14T14:48:25.207Z,5.17
2023-05-14T14:50:53.321Z,5.53
2023-05-14T14:53:21.437Z,5.50
2023-05-14T14:55:49.748Z,5.20
2023-05-14T14:58:19.372Z,5.50
2023-05-14T15:00:47.421Z,5.30
2023-05-14T15:03:16.384Z,5.00
2023-05-14T15:05:46.078Z,5.60
2023-05-14T15:08:14.050Z,5.93
2023-05-14T15:10:41.986Z,6.23
2023-05-14T15:13:12.731Z,6.30
2023-05-14T15:15:40.639Z,6.27
2023-05-14T15:18:08.620Z,6.20
2023-05-14T15:20:36.575Z,6.30
2023-05-14T15:26:52.735Z,5.50
2023-05-14T15:29:21.427Z,5.07
2023-05-14T15:31:49.480Z,4.93
2023-05-14T15:34:17.380Z,4.33
2023-05-14T15:36:45.236Z,4.20
2023-05-14T15:39:13.224Z,4.27
2023-05-14T15:41:41.139Z,3.80
2023-05-14T15:44:10.406Z,3.70
2023-05-14T15:46:38.650Z,3.70
2023-05-14T15:49:06.605Z,3.80
2023-05-14T15:51:35.129Z,3.80
2023-05-14T15:54:03.072Z,3.33
2023-05-14T15:56:31.591Z,3.20
2023-05-14T15:58:59.594Z,3.10
2023-05-14T16:01:28.892Z,2.70
2023-05-14T16:03:56.838Z,3.00
2023-05-14T16:06:24.709Z,2.93
2023-05-14T16:08:52.604Z,2.90
2023-05-14T16:11:21.541Z,2.47
2023-05-14T16:13:49.692Z,2.40
2023-05-14T16:16:17.662Z,2.20
2023-05-14T16:18:47.074Z,2.33
2023-05-14T16:21:14.952Z,2.20
2023-05-14T16:23:42.827Z,2.17
2023-05-14T16:26:11.094Z,2.10
2023-05-14T16:28:41.226Z,2.40
2023-05-14T16:31:09.123Z,2.43
2023-05-14T16:33:36.970Z,2.57
2023-05-14T16:36:06.569Z,2.40
2023-05-14T16:38:35.536Z,3.33
2023-05-14T16:41:07.092Z,3.30
2023-05-14T16:43:34.976Z,3.07
2023-05-14T16:46:02.952Z,3.20
2023-05-14T16:48:30.904Z,3.77
2023-05-14T16:50:59.491Z,3.93
2023-05-14T16:53:28.888Z,3.90
2023-05-14T16:55:56.796Z,3.00
2023-05-14T16:58:24.669Z,3.10
2023-05-14T17:00:52.542Z,3.40
2023-05-14T17:03:21.269Z,4.17
2023-05-14T17:05:49.180Z,3.93
2023-05-14T17:08:17.006Z,3.60
2023-05-14T17:10:46.234Z,3.70
2023-05-14T17:13:14.075Z,3.03
2023-05-14T17:15:42.558Z,2.40
2023-05-14T17:18:12.092Z,2.67
2023-05-14T17:20:40.035Z,2.50
2023-05-14T17:23:07.887Z,2.57
2023-05-14T17:25:35.775Z,2.50
2023-05-14T17:28:05.197Z,2.80
2023-05-14T17:30:33.172Z,2.60
2023-05-14T17:33:01.130Z,2.60
2023-05-14T17:35:29.197Z,2.10
2023-05-14T17:37:57.888Z,2.50
2023-05-14T17:40:26.639Z,2.50
2023-05-14T17:42:54.537Z,2.60
2023-05-14T17:45:24.162Z,2.50
2023-05-14T17:47:52.392Z,2.50
2023-05-14T17:50:20.675Z,2.57
2023-05-14T17:52:48.546Z,2.87
2023-05-14T17:55:17.501Z,2.60
2023-05-14T17:57:45.538Z,2.80
2023-05-14T18:00:14.309Z,2.67
2023-05-14T18:02:43.756Z,2.63
2023-05-14T18:05:11.645Z,2.80
2023-05-14T18:07:39.760Z,2.70
2023-05-14T18:10:08.888Z,2.90
2023-05-14T18:12:36.843Z,2.80
2023-05-14T18:15:05.194Z,3.10
2023-05-14T18:17:33.238Z,2.67
2023-05-14T18:20:02.874Z,2.83
2023-05-14T18:22:30.720Z,2.53
2023-05-14T18:24:58.552Z,2.93
2023-05-14T18:27:26.667Z,3.00
2023-05-14T18:29:54.649Z,3.10
2023-05-14T18:32:22.642Z,3.50
2023-05-14T18:34:50.501Z,3.57
2023-05-14T18:37:19.811Z,3.00
2023-05-14T18:39:47.678Z,3.30
2023-05-14T18:42:16.657Z,3.10
2023-05-14T18:44:45.030Z,3.40
2023-05-14T18:47:13.020Z,3.50
2023-05-14T18:49:42.279Z,3.77
2023-05-14T18:52:10.255Z,4.10
2023-05-14T18:54:39.565Z,3.57
2023-05-14T18:57:07.619Z,3.80
2023-05-14T18:59:35.461Z,3.40
2023-05-14T19:02:03.371Z,3.30
2023-05-14T19:04:33.419Z,2.97
2023-05-14T19:07:01.681Z,3.33
2023-05-14T19:09:29.578Z,3.50
2023-05-14T19:11:58.816Z,3.20
2023-05-14T19:14:26.658Z,6.07
2023-05-14T19:16:54.651Z,4.57
2023-05-14T19:19:22.533Z,4.57
2023-05-14T19:21:50.403Z,5.73
2023-05-14T19:24:18.284Z,4.67
2023-05-14T19:26:46.134Z,4.40
2023-05-14T19:29:15.425Z,4.30
2023-05-14T19:31:43.346Z,4.10
2023-05-14T19:34:11.269Z,3.60
2023-05-14T19:36:39.125Z,3.60
2023-05-14T19:39:07.003Z,3.67
2023-05-14T19:41:34.904Z,3.90
2023-05-14T19:44:02.757Z,3.90
2023-05-14T19:46:32.150Z,4.30
2023-05-14T19:49:00.031Z,3.80
2023-05-14T19:51:27.923Z,4.07
2023-05-14T19:53:55.831Z,4.10
2023-05-14T19:56:25.696Z,4.30
2023-05-14T19:58:54.913Z,4.90
2023-05-14T20:01:23.037Z,5.03
2023-05-14T20:03:52.288Z,5.00
2023-05-14T20:06:20.182Z,4.80
2023-05-14T20:08:48.064Z,4.30
2023-05-14T20:11:17.988Z,4.40
2023-05-14T20:13:45.854Z,4.90
2023-05-14T20:16:16.761Z,4.40
2023-05-14T20:18:44.755Z,4.30
2023-05-14T20:21:14.205Z,3.80
2023-05-14T20:23:42.080Z,5.00
2023-05-14T20:26:09.955Z,3.97
2023-05-14T20:28:37.839Z,3.57
2023-05-14T20:31:05.830Z,4.20
2023-05-14T20:33:33.686Z,4.30
2023-05-14T20:36:04.270Z,4.90
2023-05-14T20:38:34.980Z,4.30
2023-05-14T20:41:02.951Z,3.80
2023-05-14T20:43:30.839Z,3.80
2023-05-14T20:46:00.476Z,3.70
2023-05-14T20:48:28.391Z,3.43
2023-05-14T20:50:56.258Z,4.53
2023-05-14T20:53:25.369Z,4.03
2023-05-14T20:55:54.620Z,4.13
2023-05-14T20:58:22.554Z,4.00
2023-05-14T21:00:50.405Z,3.90
2023-05-14T21:03:18.390Z,3.70
2023-05-14T21:05:46.324Z,3.77
2023-05-14T21:08:14.168Z,4.20
2023-05-14T21:10:42.055Z,4.10
2023-05-14T21:13:11.312Z,3.90
2023-05-14T21:15:39.279Z,4.17
2023-05-14T21:18:07.180Z,4.00
2023-05-14T21:20:35.126Z,3.63
2023-05-14T21:23:02.979Z,3.50
2023-05-14T21:25:31.136Z,4.93
2023-05-14T21:27:58.973Z,4.00
2023-05-14T21:30:28.245Z,3.23
2023-05-14T21:32:56.326Z,3.30
2023-05-14T21:35:24.365Z,4.07
2023-05-14T21:37:52.549Z,6.50
2023-05-14T21:40:20.682Z,4.70
2023-05-14T21:42:48.525Z,4.70
2023-05-14T21:45:16.566Z,6.30
2023-05-14T21:47:46.025Z,6.40
2023-05-14T21:50:14.113Z,5.00
2023-05-14T21:52:42.113Z,4.93
2023-05-14T21:55:10.553Z,5.27
2023-05-14T21:57:38.438Z,3.87
2023-05-14T22:00:10.112Z,4.30
2023-05-14T22:02:37.988Z,3.90
2023-05-14T22:05:07.692Z,3.80
2023-05-14T22:07:35.594Z,3.80
2023-05-14T22:10:03.523Z,3.43
2023-05-14T22:12:31.450Z,3.13
2023-05-14T22:14:59.519Z,3.17
2023-05-14T22:17:28.284Z,2.80
2023-05-14T22:19:56.274Z,2.90
2023-05-14T22:22:25.611Z,2.80
2023-05-14T22:24:53.599Z,2.60
2023-05-14T22:27:21.486Z,2.70
2023-05-14T22:29:49.311Z,2.97
2023-05-14T22:32:17.279Z,3.00
2023-05-14T22:34:45.121Z,2.63
2023-05-14T22:37:12.989Z,2.87
2023-05-14T22:39:42.498Z,2.83
2023-05-14T22:42:11.030Z,2.80
2023-05-14T22:44:38.888Z,3.00
2023-05-14T22:47:06.930Z,3.00
2023-05-14T22:49:34.805Z,2.80
2023-05-14T22:52:03.151Z,2.90
2023-05-14T22:54:31.055Z,3.00
2023-05-14T22:57:00.340Z,3.00
2023-05-14T22:59:28.314Z,2.80
2023-05-14T23:01:56.220Z,3.50
2023-05-14T23:04:24.174Z,4.20
2023-05-14T23:06:52.101Z,3.73
2023-05-14T23:09:20.083Z,3.90
2023-05-14T23:11:48.066Z,3.80
2023-05-14T23:14:18.032Z,4.00
2023-05-14T23:16:46.054Z,3.73
2023-05-14T23:19:14.108Z,3.40
2023-05-14T23:21:42.069Z,3.40
2023-05-14T23:24:10.066Z,3.00
2023-05-14T23:26:37.944Z,3.30
2023-05-14T23:29:06.018Z,2.70
2023-05-14T23:31:35.382Z,3.00
2023-05-14T23:34:03.453Z,2.80
2023-05-14T23:36:31.452Z,2.40
2023-05-14T23:38:59.661Z,2.80
2023-05-14T23:41:27.644Z,2.20
2023-05-14T23:43:56.258Z,2.03
2023-05-14T23:46:24.580Z,2.13
2023-05-14T23:48:57.032Z,2.20
2023-05-14T23:51:25.286Z,2.40
2023-05-14T23:53:58.091Z,2.27
2023-05-14T23:56:27.421Z,2.50
2023-05-14T23:58:55.423Z,2.17
